Observations for LONDON HEATHROW, United Kingdom (EGLL)

EGLL 130920Z AUTO 08008KT 9999 NCD 02/00 Q1017 NOSIG
EGLL 130850Z AUTO 09006KT 9000 NCD 02/M00 Q1017 NOSIG   
EGLL 130820Z AUTO 08005KT 8000 NCD 02/M00 Q1017 NOSIG   
EGLL 130750Z AUTO 09007KT 8000 NCD 01/M00 Q1017 NOSIG   
EGLL 130720Z AUTO 09008KT 8000 NCD 01/M00 Q1016 NOSIG   
EGLL 130650Z AUTO 10009KT 8000 NCD 01/M00 Q1016 NOSIG   
EGLL 130620Z AUTO 09008KT 7000 NCD 02/00 Q1016 NOSIG
EGLL 130550Z AUTO 09010KT 7000 NCD 02/00 Q1016 NOSIG
EGLL 130520Z AUTO 09012KT 6000 NCD 02/00 Q1016 NOSIG
EGLL 130450Z AUTO 09011KT 6000 NCD 02/00 Q1016 NOSIG
EGLL 130420Z AUTO 09011KT 6000 NCD 02/01 Q1016 NOSIG
EGLL 130350Z AUTO 09008KT 6000 NCD 02/00 Q1017 NOSIG
EGLL 130320Z AUTO 09010KT 7000 NCD 02/01 Q1017 NOSIG
EGLL 130250Z AUTO 10007KT 7000 NCD 02/00 Q1017 NOSIG
EGLL 130220Z AUTO 10008KT 8000 BKN024 02/01 Q1018 NOSIG 
EGLL 130150Z AUTO 10009KT 8000 BKN021 02/01 Q1018 NOSIG 
EGLL 130120Z AUTO 10009KT 8000 NCD 02/00 Q1018 NOSIG
EGLL 130050Z AUTO 10008KT 8000 NCD 01/M00 Q1018 NOSIG   
EGLL 130020Z AUTO 10008KT 9999 NCD 02/M00 Q1018 BECMG 9000  
EGLL 122350Z AUTO 09008KT 9999 NCD 02/M00 Q1018 NOSIG   
EGLL 122320Z AUTO 09009KT 9999 NCD 02/M01 Q1018 NOSIG   
EGLL 122250Z AUTO 10007KT 9999 NCD 03/M01 Q1019 NOSIG   
EGLL 122220Z AUTO 10008KT 9999 NCD 03/M01 Q1019 NOSIG   
EGLL 122150Z AUTO 10009KT 9999 NCD 03/M01 Q1019 NOSIG   
EGLL 122120Z AUTO 10009KT 9999 NCD 03/M01 Q1019 NOSIG   
EGLL 122050Z AUTO 10010KT 9999 NCD 03/M01 Q1019 NOSIG   
EGLL 122020Z AUTO 09008KT 9999 NCD 03/M01 Q1020 NOSIG   
EGLL 121950Z AUTO 10009KT 9999 NCD 03/M01 Q1020 NOSIG   
EGLL 121920Z AUTO 10007KT 9999 NCD 03/M01 Q1020 NOSIG   
EGLL 121850Z AUTO 10007KT 9999 NCD 03/M01 Q1020 NOSIG   
EGLL 121820Z AUTO 10007KT 9999 NCD 03/M01 Q1021 NOSIG   
EGLL 121750Z AUTO 10006KT 9999 NCD 04/M02 Q1021 NOSIG   
EGLL 121720Z AUTO 11007KT 9999 NCD 04/M02 Q1021 NOSIG   
EGLL 121650Z AUTO 11008KT 9999 NCD 05/M01 Q1021 NOSIG   
EGLL 121620Z AUTO 12009KT 9999 NCD 05/M01 Q1021 NOSIG   
EGLL 121550Z AUTO 13010KT 9999 NCD 05/M01 Q1021 NOSIG   
EGLL 121520Z AUTO 14010KT 9999 NCD 06/M01 Q1021 NOSIG   
EGLL 121450Z AUTO 13011KT 9999 FEW034 06/M00 Q1021 NOSIG
EGLL 121420Z AUTO 13012KT 9999 BKN035 07/M00 Q1021 NOSIG
EGLL 121350Z AUTO 12012KT 9999 BKN037 07/01 Q1022 NOSIG 
EGLL 121320Z AUTO 12010KT 9999 BKN032 OVC039 07/02 Q1022 NOSIG  
EGLL 121250Z AUTO 14010KT 9999 BKN028 OVC041 07/03 Q1022 NOSIG  
EGLL 121220Z AUTO 14009KT 9999 FEW027 OVC033 07/03 Q1022 NOSIG  
EGLL 121150Z AUTO 14009KT 9999 BKN022 BKN028 07/04 Q1022 NOSIG  
EGLL 121120Z AUTO 12011KT 9999 SCT018 BKN023 BKN046 07/04 Q1023 NOSIG   
EGLL 121050Z AUTO 13009KT 9999 SCT016 SCT029 OVC040 07/05 Q1022 NOSIG   
EGLL 121020Z AUTO 13009KT 100V160 9999 BKN029 BKN036 OVC043 07/05 Q1022 NOSIG   
EGLL 120950Z AUTO 12010KT 9999 BKN030 OVC037 07/05 Q1022 NOSIG  
EGLL 120920Z AUTO 13010KT 9999 OVC031 07/05 Q1023 NOSIG 
EGLL 120850Z AUTO 12008KT 9000 BKN025 OVC037 07/05 Q1023 NOSIG